Terminal Aerodrome Forecast
Issued by NWS

Home | Current Version | Previous Version | Text Only | Print | Product List | Glossary On
Versions: 1 2 3 4 5 6 7 8 9 10 11 12 13 14 15 16
932
FTUS42 KTBW 230547
TAFLAL
TAF
KLAL 230547Z 2306/2406 VRB04KT P6SM BKN050 BKN070
     FM230900 VRB03KT P6SM SCT015 BKN050
     FM231400 21011KT P6SM SCT030 BKN100
     FM231900 24016G23KT P6SM SCT030 BKN080
     FM240100 24010KT P6SM VCTS SCT025CB BKN050 BKN100
      AMD NOT SKED TIL 231100=

USA.gov is the U.S. government's official web portal to all federal, state and local government web resources and services.